Mica, WA

3:04 AM PDT on May 05, 2015 (GMT -0700)
Ponderosa | | Change Station
CLOSE
Current Station
Personal Weather Station
Location: Spokane, WA
Elevation: 2142 ft
Nearby Weather Stations

Elev 2142 ft 47.61 °N, 117.26 °W | Updated 7 seconds ago

Partly Cloudy
Partly Cloudy
47.3 °F
Feels Like 46 °F
N
4.3
Wind Variable Wind from WSW
Gusts 7.6 mph

Today
High -- | Low -- °F
--% Chance of Precip.
Yesterday
High -- | Low -- °F
Precip. -- in
5:25 AM 8:06 PM
Full, 98% visible
Pressure 29.86 in
Visibility 10.0 miles
Clouds Clear
Windchill 46 °F
Dew Point 30 °F
Humidity 51%
Rainfall 0.00 in
Snow Depth Not available.
UV 0 out of 12
Pollen 9.40 out of 12
Air Quality Not available.
Flu Activity Sporadic
METAR KSFF 050953Z AUTO 21010KT 10SM CLR 10/00 A2989 RMK AO2 SLP112 T01000000

More Conditions Fewer Conditions

Pressure 29.86 in
Visibility 10.0 miles
Clouds Clear
Windchill 46 °F
Dew Point 30 °F
Humidity 51%
Rainfall 0.00 in
Snow Depth Not available.
UV 0 out of 12
Pollen 9.40 out of 12
Air Quality Not available.
Flu Activity Sporadic
METAR KSFF 050953Z AUTO 21010KT 10SM CLR 10/00 A2989 RMK AO2 SLP112 T01000000

More Conditions Fewer Conditions

Nepal has a long way to go to dig out and rebuild from a devastating earthquake. We have teamed up with several charities and organizations to make contributing to the relief effort as easy as possible.
How you can help: Portlight Strategies | Red Cross

10-Day Weather Forecast

Almanac

Astronomy

May. 05, 2015 Rise Set
Actual Time
Civil Twilight
Nautical Twilight
Astronomical Twilight
Moon
Length of Visible Light
Length of Day
Tomorrow will be .
, % of the Moon is Illuminated

Today's Extremes

State Highs State Lows

Community

WunderPhotos

Upload Photos

1,818,825 photos uploaded!

WunderBlogs® & News

Nearby

Air Quality

  Air Quality AQ Index Pollutant
Not available.

Snow Depth

Station Depth Elevation

Earthquake Activity

City Distance Mag. Time & Date
Minimum magnitude displayed is 2.5.

Coastal Water Temperatures

Place Temperature

Stations

Nearby Weather Stations

Station Location Temp. Windchill Dew Point Humidity Wind Precip. Elev Updated Type